Time;durP1;ratioP1;P1;durP2;ratioP2;P2;SDS_P1;SDS_P2;PMS_P1;PMS_P2;Temp;Humidity;BMP_temperature;BMP_pressure;BME280_temperature;BME280_humidity;BME280_pressure;Samples;Min_cycle;Max_cycle;Signal;HPM_P1;HPM_P2
2023/03/06 00:00:58;;;;;;;4.27;3.80;;;1.40;99.90;;;;;;5183856;28;20454;-47
2023/03/06 00:03:29;;;;;;;9.00;5.60;;;1.50;99.90;;;;;;5180935;28;20467;-48
2023/03/06 00:06:00;;;;;;;11.07;7.50;;;1.30;99.90;;;;;;5169964;28;20454;-48
2023/03/06 00:08:30;;;;;;;6.77;5.03;;;1.20;99.90;;;;;;5180435;28;20184;-46
2023/03/06 00:11:01;;;;;;;10.30;6.80;;;1.00;99.90;;;;;;5177497;28;20443;-47
2023/03/06 00:13:33;;;;;;;9.40;7.40;;;1.00;99.90;;;;;;5168588;28;20279;-46
2023/03/06 00:16:05;;;;;;;8.10;5.90;;;0.80;99.90;;;;;;5183533;28;20209;-49
2023/03/06 00:18:36;;;;;;;13.00;7.50;;;0.80;99.90;;;;;;5187751;28;20448;-48
2023/03/06 00:21:07;;;;;;;11.07;7.00;;;0.70;99.90;;;;;;5174373;28;20966;-47
2023/03/06 00:23:38;;;;;;;9.20;6.83;;;0.80;99.90;;;;;;5176817;28;20292;-47
2023/03/06 00:26:09;;;;;;;11.30;6.50;;;0.70;99.90;;;;;;5174053;28;20463;-47
2023/03/06 00:28:39;;;;;;;9.50;7.10;;;0.80;99.90;;;;;;5183202;28;20666;-48
2023/03/06 00:31:10;;;;;;;12.47;9.13;;;0.90;99.90;;;;;;5181027;28;20470;-47
2023/03/06 00:33:42;;;;;;;18.00;7.70;;;0.90;99.90;;;;;;5181320;28;20286;-47
2023/03/06 00:36:12;;;;;;;14.57;8.87;;;0.90;99.90;;;;;;5177982;28;20218;-47
2023/03/06 00:38:43;;;;;;;11.80;9.40;;;1.00;99.90;;;;;;5181379;28;20461;-46
2023/03/06 00:41:14;;;;;;;16.73;9.00;;;1.00;99.90;;;;;;5180216;28;20268;-47
2023/03/06 00:43:45;;;;;;;10.60;7.10;;;0.90;99.90;;;;;;5186066;28;20257;-48
2023/03/06 00:46:15;;;;;;;12.47;7.33;;;0.80;99.90;;;;;;5180349;28;20283;-45
2023/03/06 00:48:46;;;;;;;12.00;6.80;;;0.80;99.90;;;;;;5179382;28;21052;-47
2023/03/06 00:51:18;;;;;;;7.43;6.13;;;0.80;99.90;;;;;;5186681;28;20194;-47
2023/03/06 00:53:49;;;;;;;9.30;6.10;;;0.90;99.90;;;;;;5185241;28;20238;-48
2023/03/06 00:56:19;;;;;;;7.10;4.90;;;0.90;99.90;;;;;;5182374;28;20446;-47
2023/03/06 00:58:50;;;;;;;9.63;5.50;;;0.90;99.90;;;;;;5188731;28;20211;-46
2023/03/06 01:01:21;;;;;;;9.87;6.60;;;0.90;99.90;;;;;;5185170;28;20177;-48
2023/03/06 01:03:52;;;;;;;7.70;5.87;;;0.90;99.90;;;;;;5185047;28;20208;-47
2023/03/06 01:06:23;;;;;;;10.97;6.23;;;0.90;99.90;;;;;;5185849;28;20546;-47
2023/03/06 01:08:54;;;;;;;10.53;7.07;;;0.80;99.90;;;;;;5189012;28;20185;-46
2023/03/06 01:11:24;;;;;;;8.17;6.50;;;0.80;99.90;;;;;;5181616;28;20549;-47
2023/03/06 01:13:56;;;;;;;10.33;5.43;;;0.90;99.90;;;;;;5186558;28;20191;-47
2023/03/06 01:16:26;;;;;;;8.10;5.37;;;0.90;99.90;;;;;;5187392;28;20230;-48
2023/03/06 01:18:57;;;;;;;11.40;5.00;;;0.90;99.90;;;;;;5181960;28;20448;-49
2023/03/06 01:21:28;;;;;;;8.00;5.20;;;0.80;99.90;;;;;;5187352;28;20708;-46
2023/03/06 01:23:58;;;;;;;6.43;4.70;;;0.80;99.90;;;;;;5188749;28;20474;-48
2023/03/06 01:26:29;;;;;;;12.60;5.00;;;0.90;99.90;;;;;;5186479;28;20212;-47
2023/03/06 01:29:00;;;;;;;10.17;4.70;;;1.00;99.90;;;;;;5184870;28;20181;-47
2023/03/06 01:31:31;;;;;;;6.07;5.33;;;1.00;99.90;;;;;;5180505;28;20181;-48
2023/03/06 01:34:03;;;;;;;6.33;5.13;;;0.80;99.90;;;;;;5184907;28;20500;-47
2023/03/06 01:36:33;;;;;;;15.97;7.40;;;0.80;99.90;;;;;;5179628;28;20271;-48
2023/03/06 01:39:04;;;;;;;14.63;6.20;;;0.90;99.90;;;;;;5185205;28;20445;-50
2023/03/06 01:41:35;;;;;;;10.33;6.27;;;0.80;99.90;;;;;;5195947;28;20195;-47
2023/03/06 01:44:06;;;;;;;17.20;6.80;;;0.80;99.90;;;;;;5185984;28;20665;-46
2023/03/06 01:46:41;;;;;;;10.40;5.73;;;1.10;99.90;;;;;;5186356;28;20228;-47
2023/03/06 01:49:25;;;;;;;10.63;6.43;;;1.20;99.90;;;;;;5184171;28;20183;-47
2023/03/06 01:52:05;;;;;;;9.77;6.10;;;1.30;99.90;;;;;;5180089;28;20428;-46
2023/03/06 01:54:41;;;;;;;11.73;6.43;;;1.10;99.90;;;;;;5182136;28;20441;-48
2023/03/06 01:57:17;;;;;;;15.00;8.60;;;1.10;99.90;;;;;;5181622;28;21021;-47
2023/03/06 01:59:52;;;;;;;22.03;8.83;;;1.10;99.90;;;;;;5181502;28;20423;-51
2023/03/06 02:02:23;;;;;;;22.73;11.50;;;1.10;99.90;;;;;;5181752;28;20475;-47
2023/03/06 02:04:54;;;;;;;16.37;10.63;;;1.10;99.90;;;;;;5181031;28;20435;-48
2023/03/06 02:07:24;;;;;;;9.53;8.03;;;1.00;99.90;;;;;;5185549;28;20200;-48
2023/03/06 02:09:55;;;;;;;21.10;11.53;;;1.20;99.90;;;;;;5176548;28;20184;-49
2023/03/06 02:12:26;;;;;;;14.10;9.30;;;1.10;99.90;;;;;;5182154;28;20198;-48
2023/03/06 02:14:57;;;;;;;9.80;8.27;;;1.10;99.90;;;;;;5185927;28;20943;-49
2023/03/06 02:17:28;;;;;;;14.97;8.23;;;1.10;99.90;;;;;;5172611;28;20448;-48
2023/03/06 02:20:09;;;;;;;11.00;8.57;;;1.20;99.90;;;;;;5181314;28;20209;-47
2023/03/06 02:22:49;;;;;;;8.60;7.67;;;1.20;99.90;;;;;;5180788;28;20235;-49
2023/03/06 02:25:51;;;;;;;10.50;8.23;;;1.30;99.90;;;;;;5182662;28;20454;-47
2023/03/06 02:28:23;;;;;;;10.60;7.50;;;1.30;99.90;;;;;;5184761;28;20430;-47
2023/03/06 02:30:54;;;;;;;9.60;7.50;;;1.30;99.90;;;;;;5183132;28;20438;-47
2023/03/06 02:33:27;;;;;;;8.60;7.50;;;1.40;99.90;;;;;;5181571;28;20439;-47
2023/03/06 02:35:59;;;;;;;7.40;6.70;;;1.40;99.90;;;;;;5180093;28;20493;-48
2023/03/06 02:38:39;;;;;;;14.43;7.30;;;1.40;99.90;;;;;;5186415;28;20522;-47
2023/03/06 02:41:10;;;;;;;19.53;6.70;;;1.50;99.90;;;;;;5187284;28;20470;-48
2023/03/06 02:43:43;;;;;;;12.50;7.13;;;1.60;99.90;;;;;;5184687;28;20497;-48
2023/03/06 02:46:14;;;;;;;11.47;6.67;;;1.70;99.90;;;;;;5178483;28;20220;-47
2023/03/06 02:48:44;;;;;;;6.47;5.70;;;1.60;99.90;;;;;;5181026;28;20435;-47
2023/03/06 02:51:15;;;;;;;15.37;6.90;;;1.60;99.90;;;;;;5176542;28;20187;-48
2023/03/06 02:53:46;;;;;;;9.60;7.43;;;1.70;99.90;;;;;;5179628;28;20193;-47
2023/03/06 02:56:18;;;;;;;6.40;5.77;;;1.60;99.90;;;;;;5175617;28;20200;-46
2023/03/06 02:58:48;;;;;;;9.93;6.37;;;1.70;99.90;;;;;;5174814;28;20200;-47
2023/03/06 03:01:19;;;;;;;10.43;6.00;;;1.70;99.90;;;;;;5183388;28;20789;-48
2023/03/06 03:03:49;;;;;;;9.83;6.10;;;1.70;99.90;;;;;;5177345;28;20208;-47
2023/03/06 03:06:20;;;;;;;14.83;6.30;;;1.70;99.90;;;;;;5184916;28;20200;-50
2023/03/06 03:08:51;;;;;;;8.27;5.43;;;1.80;99.90;;;;;;5176231;28;20548;-47
2023/03/06 03:11:21;;;;;;;11.30;6.60;;;1.70;99.90;;;;;;5186320;28;20267;-49
2023/03/06 03:13:52;;;;;;;8.23;6.00;;;1.80;99.90;;;;;;5178918;28;20188;-47
2023/03/06 03:16:23;;;;;;;6.70;5.90;;;1.80;99.90;;;;;;5179894;28;20217;-47
2023/03/06 03:18:53;;;;;;;12.73;6.40;;;1.80;99.90;;;;;;5182336;28;20664;-46
2023/03/06 03:21:24;;;;;;;9.07;6.23;;;1.80;99.90;;;;;;5186938;28;20263;-47
2023/03/06 03:23:54;;;;;;;6.50;5.30;;;1.80;99.90;;;;;;5186254;28;20636;-46
2023/03/06 03:26:25;;;;;;;14.87;5.70;;;1.80;99.90;;;;;;5188437;28;20283;-46
2023/03/06 03:28:56;;;;;;;6.90;5.20;;;1.80;99.90;;;;;;5180247;28;20191;-47
2023/03/06 03:31:26;;;;;;;8.73;4.70;;;1.90;99.90;;;;;;5185910;28;20180;-47
2023/03/06 03:33:57;;;;;;;4.80;4.27;;;1.90;99.90;;;;;;5183603;28;20206;-47
2023/03/06 03:36:28;;;;;;;11.53;5.50;;;1.90;99.90;;;;;;5207164;22;20239;-51
2023/03/06 03:38:59;;;;;;;10.20;5.10;;;2.00;99.90;;;;;;5185378;28;20176;-54
2023/03/06 03:41:29;;;;;;;5.83;4.13;;;2.10;99.90;;;;;;5177755;28;20180;-53
2023/03/06 03:44:00;;;;;;;5.30;4.80;;;1.90;99.90;;;;;;5184799;28;20207;-54
2023/03/06 03:46:31;;;;;;;5.20;4.70;;;2.00;99.90;;;;;;5191294;28;20245;-53
2023/03/06 03:49:01;;;;;;;4.83;4.27;;;2.00;99.90;;;;;;5160332;28;20184;-52
2023/03/06 03:51:32;;;;;;;8.23;5.90;;;2.00;99.90;;;;;;5161028;28;20181;-52
2023/03/06 03:54:04;;;;;;;10.10;5.97;;;2.00;99.90;;;;;;5157519;28;20185;-54
2023/03/06 03:56:35;;;;;;;12.37;6.53;;;2.00;99.90;;;;;;5162081;28;20250;-52
2023/03/06 03:59:07;;;;;;;9.93;7.87;;;2.00;99.90;;;;;;5164757;28;20444;-52
2023/03/06 04:01:37;;;;;;;14.00;7.53;;;2.00;99.90;;;;;;5159125;28;20285;-54
2023/03/06 04:04:08;;;;;;;11.00;6.63;;;2.00;99.90;;;;;;5157882;28;20476;-53
2023/03/06 04:06:39;;;;;;;9.47;6.27;;;2.10;99.90;;;;;;5150343;28;20203;-54
2023/03/06 04:09:09;;;;;;;5.70;4.10;;;2.00;99.90;;;;;;5175306;28;20182;-53
2023/03/06 04:11:40;;;;;;;4.93;3.97;;;2.00;99.90;;;;;;5163001;28;20568;-53
2023/03/06 04:14:11;;;;;;;3.90;3.50;;;2.00;99.90;;;;;;5157522;28;20185;-54
2023/03/06 04:16:41;;;;;;;3.00;2.80;;;1.80;99.90;;;;;;5153810;28;20315;-54
2023/03/06 04:19:12;;;;;;;3.40;3.10;;;1.70;99.90;;;;;;5159411;28;20565;-54
2023/03/06 04:21:43;;;;;;;3.43;3.13;;;1.70;99.90;;;;;;5160558;28;20185;-54
2023/03/06 04:24:13;;;;;;;2.03;1.93;;;1.50;99.90;;;;;;5172025;28;20271;-54
2023/03/06 04:26:44;;;;;;;2.23;2.13;;;1.50;99.90;;;;;;5167826;28;20291;-54
2023/03/06 04:29:15;;;;;;;2.80;2.60;;;1.50;99.90;;;;;;5162016;28;20181;-54
2023/03/06 04:31:46;;;;;;;2.70;2.50;;;1.50;99.90;;;;;;5172209;28;20184;-54
2023/03/06 04:34:17;;;;;;;2.13;1.77;;;1.50;99.90;;;;;;5160332;28;21015;-54
2023/03/06 04:36:47;;;;;;;2.57;2.47;;;1.50;99.90;;;;;;5163745;28;20303;-54
2023/03/06 04:39:18;;;;;;;2.90;2.70;;;1.40;99.90;;;;;;5180829;28;20696;-54
2023/03/06 04:41:49;;;;;;;1.60;1.60;;;1.40;99.90;;;;;;5157787;28;20271;-54
2023/03/06 04:44:19;;;;;;;2.77;2.53;;;1.40;99.90;;;;;;5166014;28;20255;-54
2023/03/06 04:46:50;;;;;;;2.37;2.27;;;1.40;99.90;;;;;;5168774;28;20298;-54
2023/03/06 04:49:21;;;;;;;2.23;2.10;;;1.40;99.90;;;;;;5153421;28;20736;-53
2023/03/06 04:51:51;;;;;;;2.80;2.60;;;1.30;99.90;;;;;;5162584;28;20234;-55
2023/03/06 04:54:22;;;;;;;2.60;2.50;;;1.30;99.90;;;;;;5166552;28;20196;-53
2023/03/06 04:56:52;;;;;;;4.07;2.60;;;1.30;99.90;;;;;;5164687;28;20223;-53
2023/03/06 04:59:23;;;;;;;2.10;2.00;;;1.30;99.90;;;;;;5161481;28;20569;-55
2023/03/06 05:01:54;;;;;;;3.70;2.93;;;1.30;99.90;;;;;;5164040;28;20272;-55
2023/03/06 05:04:25;;;;;;;2.73;2.57;;;1.20;99.90;;;;;;5168715;28;20208;-54
2023/03/06 05:06:55;;;;;;;4.93;2.57;;;1.30;99.90;;;;;;5163579;28;20211;-54
2023/03/06 05:09:26;;;;;;;3.30;2.50;;;1.20;99.90;;;;;;5160827;28;20646;-55
2023/03/06 05:11:57;;;;;;;3.13;2.93;;;1.20;99.90;;;;;;5163205;28;20272;-53
2023/03/06 05:14:31;;;;;;;2.53;2.10;;;1.20;99.90;;;;;;5164580;28;20208;-55
2023/03/06 05:17:02;;;;;;;3.07;2.50;;;1.20;99.90;;;;;;5166662;28;20291;-54
2023/03/06 05:19:32;;;;;;;2.50;2.40;;;1.20;99.90;;;;;;5190454;28;20544;-54
2023/03/06 05:22:03;;;;;;;2.23;2.20;;;1.10;99.90;;;;;;5162950;28;20204;-54
2023/03/06 05:24:34;;;;;;;2.07;1.97;;;1.20;99.90;;;;;;5171928;28;20180;-54
2023/03/06 05:27:04;;;;;;;2.03;1.93;;;1.10;99.90;;;;;;5163783;28;20205;-55
2023/03/06 05:29:35;;;;;;;2.20;2.10;;;1.00;99.90;;;;;;5167053;28;20187;-53
2023/03/06 05:32:06;;;;;;;2.10;2.10;;;1.10;99.90;;;;;;5163536;28;20185;-53
2023/03/06 05:34:38;;;;;;;2.67;2.37;;;1.00;99.90;;;;;;5172151;28;20207;-55
2023/03/06 05:37:09;;;;;;;2.77;2.23;;;1.00;99.90;;;;;;5165481;28;20467;-55
2023/03/06 05:39:40;;;;;;;2.70;2.50;;;0.90;99.90;;;;;;5165498;28;20432;-55
2023/03/06 05:42:10;;;;;;;2.77;2.67;;;0.80;99.90;;;;;;5159954;28;20195;-55
2023/03/06 05:44:41;;;;;;;2.17;2.07;;;0.80;99.90;;;;;;5154367;28;20203;-53
2023/03/06 05:47:13;;;;;;;5.80;2.83;;;0.80;99.90;;;;;;5162077;28;20208;-54
2023/03/06 05:49:44;;;;;;;3.07;2.97;;;0.90;99.90;;;;;;5161569;28;20280;-55
2023/03/06 05:52:16;;;;;;;2.03;1.93;;;0.80;99.90;;;;;;5163396;28;20540;-51
2023/03/06 05:54:50;;;;;;;5.00;3.13;;;0.90;99.90;;;;;;5163197;28;20303;-49
2023/03/06 05:57:22;;;;;;;3.03;2.83;;;0.90;99.90;;;;;;5162406;28;20499;-51
2023/03/06 05:59:53;;;;;;;2.70;2.60;;;0.90;99.90;;;;;;5156497;28;20834;-51
2023/03/06 06:02:24;;;;;;;3.00;2.80;;;1.00;99.90;;;;;;5163706;28;20514;-51
2023/03/06 06:04:54;;;;;;;3.20;2.90;;;1.00;99.90;;;;;;5162619;28;20192;-51
2023/03/06 06:07:25;;;;;;;4.30;3.13;;;1.00;99.90;;;;;;5165205;28;20728;-52
2023/03/06 06:09:56;;;;;;;3.97;3.67;;;1.00;99.90;;;;;;5162818;28;20277;-49
2023/03/06 06:12:27;;;;;;;3.20;2.93;;;1.00;99.90;;;;;;5162548;28;20667;-51
2023/03/06 06:14:58;;;;;;;2.80;2.60;;;1.00;99.90;;;;;;5167713;28;20195;-51
2023/03/06 06:17:29;;;;;;;3.30;3.00;;;1.00;99.90;;;;;;5165721;28;20459;-50
2023/03/06 06:20:00;;;;;;;2.17;2.17;;;0.90;99.90;;;;;;5161226;28;20274;-49
2023/03/06 06:22:34;;;;;;;2.90;2.80;;;0.90;99.90;;;;;;5161215;28;20988;-49
2023/03/06 06:25:05;;;;;;;2.50;2.40;;;1.00;99.90;;;;;;5163187;28;20194;-51
2023/03/06 06:27:36;;;;;;;2.97;2.77;;;0.90;99.90;;;;;;5160256;28;20534;-51
2023/03/06 06:30:10;;;;;;;3.83;2.87;;;1.10;99.90;;;;;;5166560;28;20871;-51
2023/03/06 06:32:41;;;;;;;3.33;3.17;;;1.00;99.90;;;;;;5164763;28;20704;-50
2023/03/06 06:35:11;;;;;;;3.30;3.00;;;1.00;99.90;;;;;;5162498;28;20533;-54
2023/03/06 06:37:42;;;;;;;3.13;2.37;;;1.00;99.90;;;;;;5157419;28;20285;-53
2023/03/06 06:40:13;;;;;;;2.77;2.57;;;1.00;99.90;;;;;;5161808;28;20191;-51
2023/03/06 06:42:45;;;;;;;2.10;2.10;;;1.00;99.90;;;;;;5161178;28;20617;-52
2023/03/06 06:45:16;;;;;;;2.20;2.10;;;1.00;99.90;;;;;;5165366;28;20436;-53
2023/03/06 06:47:48;;;;;;;3.90;2.57;;;1.00;99.90;;;;;;5158676;28;20444;-54
2023/03/06 06:50:19;;;;;;;2.43;2.33;;;0.90;99.90;;;;;;5163396;28;20185;-52
2023/03/06 06:52:50;;;;;;;2.10;2.00;;;1.00;99.90;;;;;;5178569;28;20446;-55
2023/03/06 06:55:20;;;;;;;6.53;2.23;;;1.10;99.90;;;;;;5165381;28;20199;-52
2023/03/06 06:57:51;;;;;;;2.30;2.20;;;1.00;99.90;;;;;;5168148;28;20188;-51
2023/03/06 07:00:22;;;;;;;3.47;3.10;;;1.10;99.90;;;;;;5166461;28;20183;-52
2023/03/06 07:02:53;;;;;;;2.53;2.37;;;1.00;99.90;;;;;;5167583;28;20203;-51
2023/03/06 07:05:24;;;;;;;2.33;2.23;;;1.00;99.90;;;;;;5164561;28;20444;-51
2023/03/06 07:07:54;;;;;;;3.53;3.20;;;1.10;99.90;;;;;;5165371;28;20179;-52
2023/03/06 07:10:25;;;;;;;1.97;1.87;;;1.00;99.90;;;;;;5164356;28;20188;-50
2023/03/06 07:12:56;;;;;;;2.10;1.90;;;1.10;99.90;;;;;;5165697;28;20489;-52
2023/03/06 07:15:28;;;;;;;2.30;2.20;;;0.90;99.90;;;;;;5163094;28;20663;-51
2023/03/06 07:18:00;;;;;;;2.07;1.97;;;1.00;99.90;;;;;;5162187;28;20187;-51
2023/03/06 07:20:30;;;;;;;1.90;1.90;;;1.00;99.90;;;;;;5162908;28;20442;-52
2023/03/06 07:23:01;;;;;;;4.33;2.60;;;1.10;99.90;;;;;;5164263;28;20829;-55
2023/03/06 07:25:32;;;;;;;1.80;1.70;;;1.20;99.90;;;;;;5163215;28;20618;-53
2023/03/06 07:28:02;;;;;;;2.37;2.27;;;1.20;99.90;;;;;;5166198;28;20188;-55
2023/03/06 07:30:33;;;;;;;2.93;2.63;;;1.30;99.90;;;;;;5165089;28;20370;-52
2023/03/06 07:33:04;;;;;;;2.70;2.50;;;1.30;99.90;;;;;;5162751;28;20212;-52
2023/03/06 07:35:35;;;;;;;1.90;1.90;;;1.30;99.90;;;;;;5166304;28;20197;-58
2023/03/06 07:38:06;;;;;;;2.00;1.90;;;1.30;99.90;;;;;;5167459;28;20184;-52
2023/03/06 07:40:37;;;;;;;3.13;1.93;;;1.20;99.90;;;;;;5169098;28;20895;-53
2023/03/06 07:43:09;;;;;;;2.33;2.23;;;1.20;99.90;;;;;;5164755;28;20204;-58
2023/03/06 07:45:40;;;;;;;3.40;1.63;;;1.20;99.90;;;;;;5167758;28;20452;-50
2023/03/06 07:48:10;;;;;;;2.53;2.43;;;1.20;99.90;;;;;;5163479;28;20532;-55
2023/03/06 07:50:42;;;;;;;1.57;1.50;;;1.30;99.90;;;;;;5151584;28;20173;-53
2023/03/06 07:53:12;;;;;;;2.27;2.27;;;1.30;99.90;;;;;;5166425;28;20181;-54
2023/03/06 07:55:43;;;;;;;1.90;1.80;;;1.30;99.90;;;;;;5163293;28;20990;-51
2023/03/06 07:58:14;;;;;;;2.07;1.87;;;1.20;99.90;;;;;;5159098;28;20604;-53
2023/03/06 08:00:45;;;;;;;2.83;2.43;;;1.10;99.90;;;;;;5160036;28;20641;-56
2023/03/06 08:03:15;;;;;;;1.90;1.87;;;1.20;99.90;;;;;;5166879;28;20220;-56
2023/03/06 08:05:46;;;;;;;2.30;2.27;;;1.30;99.90;;;;;;5166415;28;20218;-51
2023/03/06 08:08:17;;;;;;;2.57;2.00;;;1.30;99.90;;;;;;5163045;28;20176;-53
2023/03/06 08:10:48;;;;;;;2.93;2.73;;;1.40;99.90;;;;;;5163212;28;20231;-52
2023/03/06 08:13:18;;;;;;;2.13;2.00;;;1.50;99.90;;;;;;5163918;28;20181;-58
2023/03/06 08:15:49;;;;;;;2.53;2.40;;;1.60;99.90;;;;;;5165117;28;20474;-56
2023/03/06 08:18:20;;;;;;;2.13;2.03;;;1.60;99.90;;;;;;5146064;28;20192;-52
2023/03/06 08:20:59;;;;;;;3.20;3.00;;;1.60;99.90;;;;;;5175588;28;20300;-58
2023/03/06 08:23:30;;;;;;;2.50;2.40;;;1.80;99.90;;;;;;5163300;28;20205;-53
2023/03/06 08:26:04;;;;;;;3.20;3.00;;;1.90;99.90;;;;;;5166351;28;20505;-50
2023/03/06 08:28:34;;;;;;;2.80;2.67;;;1.90;99.90;;;;;;5163960;28;20503;-52
2023/03/06 08:31:34;;;;;;;3.93;2.80;;;1.80;99.90;;;;;;5168703;28;20531;-53
2023/03/06 08:34:07;;;;;;;2.33;2.23;;;1.90;99.90;;;;;;5166642;28;20227;-49
2023/03/06 08:36:38;;;;;;;2.60;2.13;;;1.90;99.90;;;;;;5167609;28;20501;-51
2023/03/06 08:39:09;;;;;;;1.93;1.83;;;1.90;99.90;;;;;;5167398;28;20518;-51
2023/03/06 08:41:41;;;;;;;2.67;2.53;;;1.90;99.90;;;;;;5164492;28;20184;-53
2023/03/06 08:44:12;;;;;;;3.23;2.73;;;1.90;99.90;;;;;;5158855;28;20476;-52
2023/03/06 08:46:43;;;;;;;3.33;3.23;;;2.10;99.90;;;;;;5160882;28;21342;-54
2023/03/06 08:49:14;;;;;;;2.20;2.07;;;2.10;99.90;;;;;;5162107;28;20475;-50
2023/03/06 08:51:44;;;;;;;1.90;1.80;;;2.10;99.90;;;;;;5143638;28;20188;-50
2023/03/06 08:54:15;;;;;;;2.77;2.57;;;2.20;99.90;;;;;;5165741;28;20669;-56
2023/03/06 08:56:46;;;;;;;2.00;1.90;;;2.00;99.90;;;;;;5166310;28;20673;-53
2023/03/06 08:59:17;;;;;;;2.30;2.20;;;1.90;99.90;;;;;;5162933;28;20246;-52
2023/03/06 09:01:48;;;;;;;3.43;2.70;;;2.10;99.90;;;;;;5161775;28;20441;-51
2023/03/06 09:04:18;;;;;;;2.20;2.10;;;2.00;99.90;;;;;;5159452;28;20463;-55
2023/03/06 09:06:49;;;;;;;2.10;2.00;;;2.00;99.90;;;;;;5156216;28;20219;-51
2023/03/06 09:09:20;;;;;;;1.60;1.50;;;2.10;99.90;;;;;;5160204;28;20784;-52
2023/03/06 09:11:52;;;;;;;2.70;1.43;;;2.10;99.90;;;;;;5165431;28;20223;-52
2023/03/06 09:14:23;;;;;;;3.73;3.43;;;2.00;99.90;;;;;;5156647;28;20289;-51
2023/03/06 09:16:53;;;;;;;11.30;2.60;;;2.10;99.90;;;;;;5159771;28;20547;-51
2023/03/06 09:19:24;;;;;;;5.23;2.03;;;2.20;99.90;;;;;;5162420;28;20191;-56
2023/03/06 09:21:56;;;;;;;2.23;1.67;;;2.10;99.90;;;;;;5159592;28;20185;-51
2023/03/06 09:24:27;;;;;;;1.67;1.57;;;2.20;99.90;;;;;;5161979;28;20236;-50
2023/03/06 09:26:58;;;;;;;1.93;1.50;;;2.00;99.90;;;;;;5152980;28;20539;-51
2023/03/06 09:29:28;;;;;;;1.83;1.63;;;2.00;99.90;;;;;;5142722;28;20189;-52
2023/03/06 09:31:59;;;;;;;1.90;1.80;;;2.10;99.90;;;;;;5159904;28;20189;-51
2023/03/06 09:34:29;;;;;;;2.40;1.27;;;2.10;99.90;;;;;;5162599;28;20727;-51
2023/03/06 09:37:03;;;;;;;2.30;1.60;;;2.10;99.90;;;;;;5193782;22;20646;-45
2023/03/06 09:39:34;;;;;;;1.80;1.43;;;2.10;99.90;;;;;;5193159;28;20184;-46
2023/03/06 09:42:07;;;;;;;1.87;1.70;;;2.10;99.90;;;;;;5197818;28;20434;-47
2023/03/06 09:44:40;;;;;;;1.47;1.17;;;2.20;99.90;;;;;;5193617;28;21597;-45
2023/03/06 09:47:25;;;;;;;3.40;1.83;;;2.30;99.90;;;;;;5186319;28;21276;-45
2023/03/06 09:50:05;;;;;;;2.87;1.57;;;2.30;99.90;;;;;;5187491;28;20430;-48
2023/03/06 09:52:45;;;;;;;2.00;1.80;;;2.30;99.90;;;;;;5185443;28;20423;-45
2023/03/06 09:55:19;;;;;;;3.53;2.10;;;2.30;99.90;;;;;;5198923;28;20770;-50
2023/03/06 09:57:56;;;;;;;5.07;2.87;;;2.50;99.90;;;;;;5186190;28;20513;-45
2023/03/06 10:00:35;;;;;;;12.10;3.73;;;2.80;99.90;;;;;;5184522;28;20447;-46
2023/03/06 10:03:25;;;;;;;12.80;4.30;;;2.90;99.90;;;;;;5180445;28;20993;-46
2023/03/06 10:06:08;;;;;;;22.33;5.07;;;2.90;99.90;;;;;;5179783;28;20487;-45
2023/03/06 10:08:55;;;;;;;36.40;8.67;;;3.20;99.90;;;;;;5176324;28;20474;-46
2023/03/06 10:11:46;;;;;;;14.13;4.77;;;3.20;99.90;;;;;;5181357;28;20446;-45
2023/03/06 10:14:19;;;;;;;111.47;20.17;;;3.10;99.90;;;;;;5178513;28;20969;-47
2023/03/06 10:16:49;;;;;;;48.03;9.00;;;3.00;99.90;;;;;;5181692;28;21005;-49
2023/03/06 10:19:21;;;;;;;12.83;3.00;;;3.10;99.90;;;;;;5181614;28;20447;-46
2023/03/06 10:22:05;;;;;;;1.40;1.30;;;3.10;99.90;;;;;;5179211;28;20192;-48
2023/03/06 10:25:00;;;;;;;2.13;1.40;;;3.20;99.90;;;;;;5181500;28;20509;-45
2023/03/06 10:27:37;;;;;;;1.93;1.20;;;3.00;99.90;;;;;;5176240;28;20455;-47
2023/03/06 10:30:14;;;;;;;1.63;1.50;;;3.00;99.90;;;;;;5181284;28;20481;-46
2023/03/06 10:32:50;;;;;;;5.60;1.37;;;3.00;99.90;;;;;;5182359;28;20466;-48
2023/03/06 10:35:43;;;;;;;1.77;1.67;;;3.00;99.90;;;;;;5174286;28;20487;-50
2023/03/06 10:38:41;;;;;;;2.37;2.20;;;3.00;99.90;;;;;;5179181;28;20453;-48
2023/03/06 10:41:12;;;;;;;2.40;1.50;;;3.30;99.90;;;;;;5180688;28;20443;-46
2023/03/06 10:44:02;;;;;;;4.77;2.20;;;3.30;99.90;;;;;;5182301;28;20582;-45
2023/03/06 10:46:37;;;;;;;2.90;2.17;;;3.30;99.90;;;;;;5174353;28;20254;-46
2023/03/06 10:49:25;;;;;;;9.70;1.87;;;3.50;99.90;;;;;;5180083;28;20434;-46
2023/03/06 10:52:08;;;;;;;2.80;2.53;;;3.40;99.90;;;;;;5177071;28;20448;-46
2023/03/06 10:54:41;;;;;;;3.40;3.10;;;3.30;99.90;;;;;;5179963;28;20489;-45
2023/03/06 10:57:30;;;;;;;4.33;3.00;;;3.40;99.90;;;;;;5178083;28;20451;-47
2023/03/06 11:00:21;;;;;;;3.20;3.00;;;3.40;99.90;;;;;;5179862;28;21022;-49
2023/03/06 11:03:22;;;;;;;2.57;2.37;;;3.50;99.90;;;;;;5196969;28;20479;-47
2023/03/06 11:06:13;;;;;;;2.00;1.90;;;3.70;99.90;;;;;;5183094;28;20467;-47
2023/03/06 11:08:44;;;;;;;2.00;1.90;;;3.90;99.90;;;;;;5178475;28;20436;-50
2023/03/06 11:11:21;;;;;;;4.47;3.60;;;3.90;99.90;;;;;;5181169;28;20443;-47
2023/03/06 11:13:57;;;;;;;3.17;2.90;;;3.70;99.90;;;;;;5189330;28;20184;-47
2023/03/06 11:16:29;;;;;;;2.67;2.57;;;3.60;99.90;;;;;;5181699;28;20458;-52
2023/03/06 11:19:04;;;;;;;5.20;3.00;;;3.80;99.90;;;;;;5178121;28;20814;-50
2023/03/06 11:21:36;;;;;;;3.17;2.90;;;4.00;99.90;;;;;;5175549;28;20448;-52
2023/03/06 11:24:16;;;;;;;6.73;3.60;;;4.20;99.90;;;;;;5181787;28;20464;-46
2023/03/06 11:26:58;;;;;;;5.70;3.30;;;4.10;99.90;;;;;;5197083;28;20466;-46
2023/03/06 11:29:42;;;;;;;5.80;4.23;;;4.10;99.90;;;;;;5182851;28;20443;-46
2023/03/06 11:32:22;;;;;;;7.60;4.83;;;4.20;99.90;;;;;;5181589;28;20439;-47
2023/03/06 11:35:08;;;;;;;3.20;3.00;;;4.30;99.90;;;;;;5181356;28;20432;-48
2023/03/06 11:38:26;;;;;;;3.03;2.83;;;4.60;99.90;;;;;;5182406;28;20559;-48
2023/03/06 11:41:00;;;;;;;3.07;2.87;;;4.70;99.90;;;;;;5165747;28;20446;-48
2023/03/06 11:43:39;;;;;;;1.90;1.80;;;4.60;99.90;;;;;;5180738;28;20467;-46
2023/03/06 11:46:24;;;;;;;2.87;2.63;;;4.40;99.90;;;;;;5177687;28;20499;-52
2023/03/06 11:49:04;;;;;;;10.20;3.03;;;4.40;99.90;;;;;;5187367;28;20448;-49
2023/03/06 11:51:42;;;;;;;1.57;1.57;;;4.50;99.90;;;;;;5183596;28;21123;-46
2023/03/06 11:54:13;;;;;;;6.00;1.97;;;4.60;99.90;;;;;;5183832;28;20445;-50
2023/03/06 11:56:58;;;;;;;2.83;2.37;;;4.40;99.90;;;;;;5179775;28;21024;-47
2023/03/06 12:00:00;;;;;;;3.40;1.90;;;4.40;99.90;;;;;;5178258;28;20448;-47
2023/03/06 12:02:59;;;;;;;2.30;2.10;;;4.60;99.90;;;;;;5177097;28;20466;-49
2023/03/06 12:05:54;;;;;;;2.87;2.27;;;4.80;99.90;;;;;;5175010;28;20450;-48
2023/03/06 12:09:03;;;;;;;2.53;2.33;;;5.00;99.90;;;;;;5167359;28;20446;-52
2023/03/06 12:11:40;;;;;;;5.37;2.93;;;5.20;99.90;;;;;;5178472;28;20474;-47
2023/03/06 12:14:42;;;;;;;3.57;2.50;;;5.30;99.90;;;;;;5166084;28;20909;-47
2023/03/06 12:17:34;;;;;;;2.20;1.80;;;5.40;99.90;;;;;;5174725;28;20469;-48
2023/03/06 12:20:30;;;;;;;8.77;2.33;;;5.40;99.90;;;;;;5179056;28;20448;-49
2023/03/06 12:23:15;;;;;;;1.90;1.77;;;5.40;99.90;;;;;;5179455;28;20485;-49
2023/03/06 12:26:12;;;;;;;4.23;2.30;;;5.50;99.90;;;;;;5178878;28;20438;-48
2023/03/06 12:29:15;;;;;;;7.10;4.00;;;5.50;99.90;;;;;;5155921;28;20438;-47
2023/03/06 12:32:08;;;;;;;9.10;4.40;;;5.40;99.90;;;;;;5178873;28;20451;-47
2023/03/06 12:35:16;;;;;;;4.00;2.70;;;5.20;99.90;;;;;;5182172;28;20465;-46
2023/03/06 12:38:22;;;;;;;1.70;1.57;;;5.30;99.90;;;;;;5177238;28;20911;-47
2023/03/06 12:40:55;;;;;;;2.23;1.33;;;5.20;99.90;;;;;;5180442;28;20879;-46
2023/03/06 12:43:45;;;;;;;2.60;1.13;;;5.10;99.90;;;;;;5184521;28;20473;-49
2023/03/06 12:46:24;;;;;;;2.23;1.07;;;5.10;99.90;;;;;;5181123;28;20474;-52
2023/03/06 12:49:01;;;;;;;7.40;1.80;;;5.20;99.90;;;;;;5202588;28;20497;-56
2023/03/06 12:51:33;;;;;;;2.73;1.70;;;5.40;99.90;;;;;;5185445;28;20460;-49
2023/03/06 12:54:04;;;;;;;2.33;1.50;;;5.30;99.90;;;;;;5183493;28;20532;-48
2023/03/06 12:56:35;;;;;;;1.20;1.10;;;5.30;99.90;;;;;;5181085;28;20794;-46
2023/03/06 12:59:25;;;;;;;3.20;1.67;;;5.40;99.90;;;;;;5184366;28;20532;-52
2023/03/06 13:02:27;;;;;;;1.73;1.07;;;5.50;99.90;;;;;;5185393;28;21372;-47
2023/03/06 13:05:30;;;;;;;1.70;1.53;;;5.20;99.90;;;;;;5179944;28;20442;-51
2023/03/06 13:08:29;;;;;;;2.60;1.47;;;5.40;99.90;;;;;;5183873;28;20843;-47
2023/03/06 13:11:16;;;;;;;3.80;1.23;;;5.50;99.90;;;;;;5178779;28;21033;-51
2023/03/06 13:13:47;;;;;;;1.10;1.00;;;5.80;99.90;;;;;;5183915;28;20987;-47
2023/03/06 13:16:32;;;;;;;1.83;1.07;;;5.80;99.90;;;;;;5175545;28;20447;-46
2023/03/06 13:19:16;;;;;;;3.13;2.67;;;6.00;99.90;;;;;;5181322;28;20443;-47
2023/03/06 13:21:53;;;;;;;3.40;2.00;;;5.90;99.90;;;;;;5178720;28;20442;-46
2023/03/06 13:24:35;;;;;;;2.00;1.90;;;5.80;99.90;;;;;;5178533;28;20463;-52
2023/03/06 13:27:11;;;;;;;3.30;2.37;;;5.80;99.90;;;;;;5177915;28;20947;-49
2023/03/06 13:29:49;;;;;;;2.83;2.20;;;5.30;99.90;;;;;;5174895;28;20484;-48
2023/03/06 13:32:29;;;;;;;3.20;2.07;;;5.40;99.90;;;;;;5181037;28;20526;-46
2023/03/06 13:35:00;;;;;;;3.43;1.33;;;5.30;99.90;;;;;;5178434;28;20884;-47